sensor_id;sensor_type;location;lat;lon;timestamp;temperature;humidity
8715;DHT22;4394;51.208;8.904;2022-10-29T00:02:28;16.10;99.90
8715;DHT22;4394;51.208;8.904;2022-10-29T00:05:16;16.20;99.90
8715;DHT22;4394;51.208;8.904;2022-10-29T00:08:05;16.20;99.90
8715;DHT22;4394;51.208;8.904;2022-10-29T00:10:53;16.20;99.90
8715;DHT22;4394;51.208;8.904;2022-10-29T00:13:41;16.10;99.90
8715;DHT22;4394;51.208;8.904;2022-10-29T00:16:30;16.10;99.90
8715;DHT22;4394;51.208;8.904;2022-10-29T00:19:20;16.00;99.90
8715;DHT22;4394;51.208;8.904;2022-10-29T00:22:08;16.00;99.90
8715;DHT22;4394;51.208;8.904;2022-10-29T00:24:57;16.00;99.90
8715;DHT22;4394;51.208;8.904;2022-10-29T00:27:45;16.10;99.90
8715;DHT22;4394;51.208;8.904;2022-10-29T00:30:33;16.10;99.90
8715;DHT22;4394;51.208;8.904;2022-10-29T00:33:21;16.10;99.90
8715;DHT22;4394;51.208;8.904;2022-10-29T00:36:09;16.10;99.90
8715;DHT22;4394;51.208;8.904;2022-10-29T00:38:57;16.10;99.90
8715;DHT22;4394;51.208;8.904;2022-10-29T00:41:46;16.10;99.90
8715;DHT22;4394;51.208;8.904;2022-10-29T00:44:34;16.10;99.90
8715;DHT22;4394;51.208;8.904;2022-10-29T00:47:24;16.10;99.90
8715;DHT22;4394;51.208;8.904;2022-10-29T00:50:13;16.20;99.90
8715;DHT22;4394;51.208;8.904;2022-10-29T00:53:01;16.20;99.90
8715;DHT22;4394;51.208;8.904;2022-10-29T00:55:48;16.20;99.90
8715;DHT22;4394;51.208;8.904;2022-10-29T00:58:38;16.20;99.90
8715;DHT22;4394;51.208;8.904;2022-10-29T01:01:26;16.20;99.90
8715;DHT22;4394;51.208;8.904;2022-10-29T01:04:14;16.20;99.90
8715;DHT22;4394;51.208;8.904;2022-10-29T01:07:03;16.20;99.90
8715;DHT22;4394;51.208;8.904;2022-10-29T01:09:51;16.20;99.90
8715;DHT22;4394;51.208;8.904;2022-10-29T01:12:43;16.20;99.90
8715;DHT22;4394;51.208;8.904;2022-10-29T01:15:38;16.30;99.90
8715;DHT22;4394;51.208;8.904;2022-10-29T01:18:29;16.20;99.90
8715;DHT22;4394;51.208;8.904;2022-10-29T01:21:31;16.30;99.90
8715;DHT22;4394;51.208;8.904;2022-10-29T01:30:53;16.30;99.90
8715;DHT22;4394;51.208;8.904;2022-10-29T01:33:47;16.30;99.90
8715;DHT22;4394;51.208;8.904;2022-10-29T01:36:39;16.30;99.90
8715;DHT22;4394;51.208;8.904;2022-10-29T01:39:30;16.30;99.90
8715;DHT22;4394;51.208;8.904;2022-10-29T01:42:22;16.30;99.90
8715;DHT22;4394;51.208;8.904;2022-10-29T01:45:11;16.30;99.90
8715;DHT22;4394;51.208;8.904;2022-10-29T01:48:06;16.40;99.90
8715;DHT22;4394;51.208;8.904;2022-10-29T01:50:56;16.40;99.90
8715;DHT22;4394;51.208;8.904;2022-10-29T01:53:45;16.40;99.90
8715;DHT22;4394;51.208;8.904;2022-10-29T01:56:33;16.40;99.90
8715;DHT22;4394;51.208;8.904;2022-10-29T01:59:21;16.40;99.90
8715;DHT22;4394;51.208;8.904;2022-10-29T02:02:23;16.30;99.90
8715;DHT22;4394;51.208;8.904;2022-10-29T02:05:16;16.30;99.90
8715;DHT22;4394;51.208;8.904;2022-10-29T02:08:11;16.30;99.90
8715;DHT22;4394;51.208;8.904;2022-10-29T02:11:01;16.30;99.90
8715;DHT22;4394;51.208;8.904;2022-10-29T02:13:51;16.30;99.90
8715;DHT22;4394;51.208;8.904;2022-10-29T02:16:41;16.30;99.90
8715;DHT22;4394;51.208;8.904;2022-10-29T02:19:29;16.30;99.90
8715;DHT22;4394;51.208;8.904;2022-10-29T02:22:18;16.30;99.90
8715;DHT22;4394;51.208;8.904;2022-10-29T02:25:06;16.30;99.90
8715;DHT22;4394;51.208;8.904;2022-10-29T02:27:54;16.30;99.90
8715;DHT22;4394;51.208;8.904;2022-10-29T02:30:43;16.30;99.90
8715;DHT22;4394;51.208;8.904;2022-10-29T02:33:31;16.30;99.90
8715;DHT22;4394;51.208;8.904;2022-10-29T02:36:18;16.30;99.90
8715;DHT22;4394;51.208;8.904;2022-10-29T02:39:07;16.30;99.90
8715;DHT22;4394;51.208;8.904;2022-10-29T02:41:55;16.30;99.90
8715;DHT22;4394;51.208;8.904;2022-10-29T02:44:43;16.30;99.90
8715;DHT22;4394;51.208;8.904;2022-10-29T02:47:31;16.30;99.90
8715;DHT22;4394;51.208;8.904;2022-10-29T02:50:19;16.30;99.90
8715;DHT22;4394;51.208;8.904;2022-10-29T02:53:06;16.20;99.90
8715;DHT22;4394;51.208;8.904;2022-10-29T02:55:55;16.20;99.90
8715;DHT22;4394;51.208;8.904;2022-10-29T02:58:43;16.20;99.90
8715;DHT22;4394;51.208;8.904;2022-10-29T03:01:31;16.20;99.90
8715;DHT22;4394;51.208;8.904;2022-10-29T03:04:19;16.20;99.90
8715;DHT22;4394;51.208;8.904;2022-10-29T03:07:06;16.20;99.90
8715;DHT22;4394;51.208;8.904;2022-10-29T03:09:54;16.20;99.90
8715;DHT22;4394;51.208;8.904;2022-10-29T03:12:43;16.20;99.90
8715;DHT22;4394;51.208;8.904;2022-10-29T03:15:31;16.20;99.90
8715;DHT22;4394;51.208;8.904;2022-10-29T03:18:19;16.20;99.90
8715;DHT22;4394;51.208;8.904;2022-10-29T03:21:06;16.10;99.90
8715;DHT22;4394;51.208;8.904;2022-10-29T03:23:54;16.10;99.90
8715;DHT22;4394;51.208;8.904;2022-10-29T03:26:42;16.10;99.90
8715;DHT22;4394;51.208;8.904;2022-10-29T03:29:31;16.10;99.90
8715;DHT22;4394;51.208;8.904;2022-10-29T03:32:19;16.10;99.90
8715;DHT22;4394;51.208;8.904;2022-10-29T03:35:07;16.00;99.90
8715;DHT22;4394;51.208;8.904;2022-10-29T03:37:55;16.00;99.90
8715;DHT22;4394;51.208;8.904;2022-10-29T03:40:43;16.00;99.90
8715;DHT22;4394;51.208;8.904;2022-10-29T03:43:31;16.00;99.90
8715;DHT22;4394;51.208;8.904;2022-10-29T03:46:20;16.00;99.90
8715;DHT22;4394;51.208;8.904;2022-10-29T03:49:07;16.00;99.90
8715;DHT22;4394;51.208;8.904;2022-10-29T03:51:55;16.00;99.90
8715;DHT22;4394;51.208;8.904;2022-10-29T03:54:43;16.00;99.90
8715;DHT22;4394;51.208;8.904;2022-10-29T03:57:31;16.00;99.90
8715;DHT22;4394;51.208;8.904;2022-10-29T04:00:19;15.90;99.90
8715;DHT22;4394;51.208;8.904;2022-10-29T04:03:08;15.90;99.90
8715;DHT22;4394;51.208;8.904;2022-10-29T04:05:56;15.80;99.90
8715;DHT22;4394;51.208;8.904;2022-10-29T04:08:45;15.80;99.90
8715;DHT22;4394;51.208;8.904;2022-10-29T04:11:33;15.80;99.90
8715;DHT22;4394;51.208;8.904;2022-10-29T04:14:21;15.80;99.90
8715;DHT22;4394;51.208;8.904;2022-10-29T04:17:09;15.80;99.90
8715;DHT22;4394;51.208;8.904;2022-10-29T04:19:59;15.80;99.90
8715;DHT22;4394;51.208;8.904;2022-10-29T04:22:49;15.70;99.90
8715;DHT22;4394;51.208;8.904;2022-10-29T04:25:57;15.70;99.90
8715;DHT22;4394;51.208;8.904;2022-10-29T04:29:05;15.60;99.90
8715;DHT22;4394;51.208;8.904;2022-10-29T04:31:52;15.60;99.90
8715;DHT22;4394;51.208;8.904;2022-10-29T04:34:40;15.60;99.90
8715;DHT22;4394;51.208;8.904;2022-10-29T04:37:29;15.50;99.90
8715;DHT22;4394;51.208;8.904;2022-10-29T04:40:17;15.50;99.90
8715;DHT22;4394;51.208;8.904;2022-10-29T04:43:04;15.40;99.90
8715;DHT22;4394;51.208;8.904;2022-10-29T04:45:53;15.30;99.90
8715;DHT22;4394;51.208;8.904;2022-10-29T04:48:41;15.20;99.90
8715;DHT22;4394;51.208;8.904;2022-10-29T04:51:29;15.20;99.90
8715;DHT22;4394;51.208;8.904;2022-10-29T04:54:18;15.20;99.90
8715;DHT22;4394;51.208;8.904;2022-10-29T04:57:05;15.20;99.90
8715;DHT22;4394;51.208;8.904;2022-10-29T04:59:53;15.20;99.90
8715;DHT22;4394;51.208;8.904;2022-10-29T05:02:41;15.10;99.90
8715;DHT22;4394;51.208;8.904;2022-10-29T05:05:29;15.10;99.90
8715;DHT22;4394;51.208;8.904;2022-10-29T05:08:16;15.10;99.90
8715;DHT22;4394;51.208;8.904;2022-10-29T05:11:06;15.10;99.90
8715;DHT22;4394;51.208;8.904;2022-10-29T05:13:54;15.20;99.90
8715;DHT22;4394;51.208;8.904;2022-10-29T05:16:41;15.20;99.90
8715;DHT22;4394;51.208;8.904;2022-10-29T05:19:29;15.20;99.90
8715;DHT22;4394;51.208;8.904;2022-10-29T05:22:17;15.20;99.90
8715;DHT22;4394;51.208;8.904;2022-10-29T05:25:05;15.20;99.90
8715;DHT22;4394;51.208;8.904;2022-10-29T05:28:01;15.20;99.90
8715;DHT22;4394;51.208;8.904;2022-10-29T05:30:49;15.20;99.90
8715;DHT22;4394;51.208;8.904;2022-10-29T05:33:37;15.20;99.90
8715;DHT22;4394;51.208;8.904;2022-10-29T05:36:25;15.20;99.90
8715;DHT22;4394;51.208;8.904;2022-10-29T05:39:13;15.20;99.90
8715;DHT22;4394;51.208;8.904;2022-10-29T05:42:01;15.20;99.90
8715;DHT22;4394;51.208;8.904;2022-10-29T05:44:50;15.30;99.90
8715;DHT22;4394;51.208;8.904;2022-10-29T05:47:38;15.30;99.90
8715;DHT22;4394;51.208;8.904;2022-10-29T05:50:26;15.20;99.90
8715;DHT22;4394;51.208;8.904;2022-10-29T05:53:14;15.20;99.90
8715;DHT22;4394;51.208;8.904;2022-10-29T05:56:02;15.30;99.90
8715;DHT22;4394;51.208;8.904;2022-10-29T05:58:50;15.30;99.90
8715;DHT22;4394;51.208;8.904;2022-10-29T06:01:39;15.30;99.90
8715;DHT22;4394;51.208;8.904;2022-10-29T06:04:27;15.30;99.90
8715;DHT22;4394;51.208;8.904;2022-10-29T06:07:14;15.30;99.90
8715;DHT22;4394;51.208;8.904;2022-10-29T06:10:02;15.30;99.90
8715;DHT22;4394;51.208;8.904;2022-10-29T06:12:50;15.30;99.90
8715;DHT22;4394;51.208;8.904;2022-10-29T06:15:38;15.30;99.90
8715;DHT22;4394;51.208;8.904;2022-10-29T06:18:28;15.30;99.90
8715;DHT22;4394;51.208;8.904;2022-10-29T06:21:16;15.30;99.90
8715;DHT22;4394;51.208;8.904;2022-10-29T06:24:04;15.30;99.90
8715;DHT22;4394;51.208;8.904;2022-10-29T06:27:01;15.30;99.90
8715;DHT22;4394;51.208;8.904;2022-10-29T06:29:49;15.30;99.90
8715;DHT22;4394;51.208;8.904;2022-10-29T06:32:36;15.30;99.90
8715;DHT22;4394;51.208;8.904;2022-10-29T06:35:28;15.30;99.90
8715;DHT22;4394;51.208;8.904;2022-10-29T06:38:17;15.30;99.90
8715;DHT22;4394;51.208;8.904;2022-10-29T06:41:05;15.30;99.90
8715;DHT22;4394;51.208;8.904;2022-10-29T06:43:55;15.30;99.90
8715;DHT22;4394;51.208;8.904;2022-10-29T06:46:42;15.30;99.90
8715;DHT22;4394;51.208;8.904;2022-10-29T06:49:30;15.30;99.90
8715;DHT22;4394;51.208;8.904;2022-10-29T06:52:19;15.30;99.90
8715;DHT22;4394;51.208;8.904;2022-10-29T06:55:07;15.30;99.90
8715;DHT22;4394;51.208;8.904;2022-10-29T06:57:56;15.30;99.90
8715;DHT22;4394;51.208;8.904;2022-10-29T07:00:44;15.30;99.90
8715;DHT22;4394;51.208;8.904;2022-10-29T07:03:32;15.30;99.90
8715;DHT22;4394;51.208;8.904;2022-10-29T07:06:20;15.30;99.90
8715;DHT22;4394;51.208;8.904;2022-10-29T07:09:09;15.40;99.90
8715;DHT22;4394;51.208;8.904;2022-10-29T07:11:57;15.40;99.90
8715;DHT22;4394;51.208;8.904;2022-10-29T07:14:45;15.40;99.90
8715;DHT22;4394;51.208;8.904;2022-10-29T07:17:32;15.40;99.90
8715;DHT22;4394;51.208;8.904;2022-10-29T07:20:20;15.40;99.90
8715;DHT22;4394;51.208;8.904;2022-10-29T07:23:08;15.30;99.90
8715;DHT22;4394;51.208;8.904;2022-10-29T07:25:57;15.30;99.90
8715;DHT22;4394;51.208;8.904;2022-10-29T07:28:45;15.30;99.90
8715;DHT22;4394;51.208;8.904;2022-10-29T07:31:36;15.30;99.90
8715;DHT22;4394;51.208;8.904;2022-10-29T07:34:24;15.30;99.90
8715;DHT22;4394;51.208;8.904;2022-10-29T07:37:12;15.40;99.90
8715;DHT22;4394;51.208;8.904;2022-10-29T07:39:59;15.40;99.90
8715;DHT22;4394;51.208;8.904;2022-10-29T07:42:51;15.50;99.90
8715;DHT22;4394;51.208;8.904;2022-10-29T07:45:39;15.50;99.90
8715;DHT22;4394;51.208;8.904;2022-10-29T07:48:28;15.50;99.90
8715;DHT22;4394;51.208;8.904;2022-10-29T07:51:16;15.50;99.90
8715;DHT22;4394;51.208;8.904;2022-10-29T07:54:03;15.60;99.90
8715;DHT22;4394;51.208;8.904;2022-10-29T07:56:57;15.60;99.90
8715;DHT22;4394;51.208;8.904;2022-10-29T07:59:46;15.60;99.90
8715;DHT22;4394;51.208;8.904;2022-10-29T08:02:36;15.60;99.90
8715;DHT22;4394;51.208;8.904;2022-10-29T08:05:24;15.70;99.90
8715;DHT22;4394;51.208;8.904;2022-10-29T08:08:12;15.70;99.90
8715;DHT22;4394;51.208;8.904;2022-10-29T08:11:00;15.70;99.90
8715;DHT22;4394;51.208;8.904;2022-10-29T08:13:48;15.70;99.90
8715;DHT22;4394;51.208;8.904;2022-10-29T08:16:37;15.70;99.90
8715;DHT22;4394;51.208;8.904;2022-10-29T08:19:25;15.70;99.90
8715;DHT22;4394;51.208;8.904;2022-10-29T08:22:15;15.70;99.90
8715;DHT22;4394;51.208;8.904;2022-10-29T08:25:03;15.80;99.90
8715;DHT22;4394;51.208;8.904;2022-10-29T08:27:56;15.80;99.90
8715;DHT22;4394;51.208;8.904;2022-10-29T08:30:47;15.80;99.90
8715;DHT22;4394;51.208;8.904;2022-10-29T08:33:37;15.90;99.90
8715;DHT22;4394;51.208;8.904;2022-10-29T08:36:25;15.80;99.90
8715;DHT22;4394;51.208;8.904;2022-10-29T08:39:12;15.80;99.90
8715;DHT22;4394;51.208;8.904;2022-10-29T08:42:02;15.80;99.90
8715;DHT22;4394;51.208;8.904;2022-10-29T08:45:01;15.90;99.90
8715;DHT22;4394;51.208;8.904;2022-10-29T08:47:58;16.00;99.90
8715;DHT22;4394;51.208;8.904;2022-10-29T08:50:55;16.10;99.90
8715;DHT22;4394;51.208;8.904;2022-10-29T08:53:44;16.20;99.90
8715;DHT22;4394;51.208;8.904;2022-10-29T08:56:53;16.20;99.90
8715;DHT22;4394;51.208;8.904;2022-10-29T08:59:42;16.30;99.90
8715;DHT22;4394;51.208;8.904;2022-10-29T09:02:32;16.40;99.90
8715;DHT22;4394;51.208;8.904;2022-10-29T09:05:20;16.40;99.90
8715;DHT22;4394;51.208;8.904;2022-10-29T09:08:17;16.40;99.90
8715;DHT22;4394;51.208;8.904;2022-10-29T09:11:12;16.40;99.90
8715;DHT22;4394;51.208;8.904;2022-10-29T09:14:08;16.50;99.90
8715;DHT22;4394;51.208;8.904;2022-10-29T09:16:59;16.50;99.90
8715;DHT22;4394;51.208;8.904;2022-10-29T09:19:54;16.60;99.90
8715;DHT22;4394;51.208;8.904;2022-10-29T09:22:45;16.60;99.90
8715;DHT22;4394;51.208;8.904;2022-10-29T09:25:38;16.70;99.90
8715;DHT22;4394;51.208;8.904;2022-10-29T09:28:32;16.70;99.90
8715;DHT22;4394;51.208;8.904;2022-10-29T09:31:22;16.80;99.90
8715;DHT22;4394;51.208;8.904;2022-10-29T09:34:15;16.80;99.90
8715;DHT22;4394;51.208;8.904;2022-10-29T09:37:08;16.90;99.90
8715;DHT22;4394;51.208;8.904;2022-10-29T09:39:57;16.90;99.90
8715;DHT22;4394;51.208;8.904;2022-10-29T09:42:47;16.90;99.90
8715;DHT22;4394;51.208;8.904;2022-10-29T09:45:42;16.90;99.90
8715;DHT22;4394;51.208;8.904;2022-10-29T09:48:32;17.00;99.90
8715;DHT22;4394;51.208;8.904;2022-10-29T09:51:24;17.00;99.90
8715;DHT22;4394;51.208;8.904;2022-10-29T09:54:13;17.00;99.90
8715;DHT22;4394;51.208;8.904;2022-10-29T09:57:03;17.00;99.90
8715;DHT22;4394;51.208;8.904;2022-10-29T09:59:53;17.00;99.90
8715;DHT22;4394;51.208;8.904;2022-10-29T10:02:43;17.00;99.90
8715;DHT22;4394;51.208;8.904;2022-10-29T10:05:32;17.00;99.90
8715;DHT22;4394;51.208;8.904;2022-10-29T10:08:20;17.10;99.90
8715;DHT22;4394;51.208;8.904;2022-10-29T10:11:07;17.20;99.90
8715;DHT22;4394;51.208;8.904;2022-10-29T10:14:07;17.30;99.90
8715;DHT22;4394;51.208;8.904;2022-10-29T10:16:57;17.30;99.90
8715;DHT22;4394;51.208;8.904;2022-10-29T10:19:45;17.40;99.90
8715;DHT22;4394;51.208;8.904;2022-10-29T10:22:34;17.50;99.90
8715;DHT22;4394;51.208;8.904;2022-10-29T10:25:36;17.60;99.90
8715;DHT22;4394;51.208;8.904;2022-10-29T10:28:25;17.70;99.90
8715;DHT22;4394;51.208;8.904;2022-10-29T10:31:15;17.70;99.90
8715;DHT22;4394;51.208;8.904;2022-10-29T10:34:08;17.70;99.90
8715;DHT22;4394;51.208;8.904;2022-10-29T10:37:01;17.70;99.90
8715;DHT22;4394;51.208;8.904;2022-10-29T10:39:50;17.70;99.90
8715;DHT22;4394;51.208;8.904;2022-10-29T10:42:39;17.80;99.90
8715;DHT22;4394;51.208;8.904;2022-10-29T10:45:33;17.80;99.90
8715;DHT22;4394;51.208;8.904;2022-10-29T10:48:22;17.80;99.90
8715;DHT22;4394;51.208;8.904;2022-10-29T10:51:22;17.90;99.90
8715;DHT22;4394;51.208;8.904;2022-10-29T10:54:21;18.00;99.90
8715;DHT22;4394;51.208;8.904;2022-10-29T10:57:17;18.10;99.90
8715;DHT22;4394;51.208;8.904;2022-10-29T11:00:08;18.10;99.90
8715;DHT22;4394;51.208;8.904;2022-10-29T11:03:01;18.20;99.90
8715;DHT22;4394;51.208;8.904;2022-10-29T11:05:53;18.10;99.90
8715;DHT22;4394;51.208;8.904;2022-10-29T11:08:45;18.20;99.90
8715;DHT22;4394;51.208;8.904;2022-10-29T11:11:37;18.20;99.90
8715;DHT22;4394;51.208;8.904;2022-10-29T11:14:27;18.30;99.90
8715;DHT22;4394;51.208;8.904;2022-10-29T11:17:21;18.30;99.90
8715;DHT22;4394;51.208;8.904;2022-10-29T11:20:12;18.30;99.90
8715;DHT22;4394;51.208;8.904;2022-10-29T11:23:20;18.30;99.90
8715;DHT22;4394;51.208;8.904;2022-10-29T11:26:12;18.30;99.90
8715;DHT22;4394;51.208;8.904;2022-10-29T11:29:03;18.30;99.90
8715;DHT22;4394;51.208;8.904;2022-10-29T11:31:55;18.40;99.90
8715;DHT22;4394;51.208;8.904;2022-10-29T11:34:47;18.50;99.90
8715;DHT22;4394;51.208;8.904;2022-10-29T11:37:36;18.60;99.90
8715;DHT22;4394;51.208;8.904;2022-10-29T11:40:30;18.60;99.90
8715;DHT22;4394;51.208;8.904;2022-10-29T11:43:22;18.50;99.90
8715;DHT22;4394;51.208;8.904;2022-10-29T11:46:11;18.60;99.90
8715;DHT22;4394;51.208;8.904;2022-10-29T11:49:04;18.60;99.90
8715;DHT22;4394;51.208;8.904;2022-10-29T11:52:03;18.60;99.90
8715;DHT22;4394;51.208;8.904;2022-10-29T11:54:54;18.60;99.90
8715;DHT22;4394;51.208;8.904;2022-10-29T11:57:46;18.60;99.90
8715;DHT22;4394;51.208;8.904;2022-10-29T12:00:43;18.60;99.90
8715;DHT22;4394;51.208;8.904;2022-10-29T12:03:50;18.60;99.90
8715;DHT22;4394;51.208;8.904;2022-10-29T12:06:42;18.60;99.90
8715;DHT22;4394;51.208;8.904;2022-10-29T12:09:36;18.70;99.90
8715;DHT22;4394;51.208;8.904;2022-10-29T12:12:27;18.60;99.90
8715;DHT22;4394;51.208;8.904;2022-10-29T12:15:19;18.70;99.90
8715;DHT22;4394;51.208;8.904;2022-10-29T12:18:12;18.70;99.90
8715;DHT22;4394;51.208;8.904;2022-10-29T12:21:04;18.80;99.90
8715;DHT22;4394;51.208;8.904;2022-10-29T12:23:57;18.80;99.90
8715;DHT22;4394;51.208;8.904;2022-10-29T12:26:48;18.90;99.90
8715;DHT22;4394;51.208;8.904;2022-10-29T12:29:41;19.00;99.90
8715;DHT22;4394;51.208;8.904;2022-10-29T12:32:35;19.00;99.90
8715;DHT22;4394;51.208;8.904;2022-10-29T12:35:26;19.00;99.90
8715;DHT22;4394;51.208;8.904;2022-10-29T12:38:18;19.00;99.90
8715;DHT22;4394;51.208;8.904;2022-10-29T12:41:11;19.10;99.90
8715;DHT22;4394;51.208;8.904;2022-10-29T12:44:02;19.10;99.90
8715;DHT22;4394;51.208;8.904;2022-10-29T12:46:53;19.20;99.90
8715;DHT22;4394;51.208;8.904;2022-10-29T12:49:46;19.30;99.90
8715;DHT22;4394;51.208;8.904;2022-10-29T12:52:40;19.40;99.90
8715;DHT22;4394;51.208;8.904;2022-10-29T12:55:29;19.50;99.90
8715;DHT22;4394;51.208;8.904;2022-10-29T13:05:17;19.70;99.90
8715;DHT22;4394;51.208;8.904;2022-10-29T13:11:21;19.80;99.90
8715;DHT22;4394;51.208;8.904;2022-10-29T13:14:10;19.90;99.90
8715;DHT22;4394;51.208;8.904;2022-10-29T13:16:59;19.90;99.90
8715;DHT22;4394;51.208;8.904;2022-10-29T13:19:48;19.90;99.90
8715;DHT22;4394;51.208;8.904;2022-10-29T13:22:50;19.90;99.90
8715;DHT22;4394;51.208;8.904;2022-10-29T13:25:43;19.90;99.90
8715;DHT22;4394;51.208;8.904;2022-10-29T13:28:51;19.90;99.90
8715;DHT22;4394;51.208;8.904;2022-10-29T13:31:48;19.90;99.90
8715;DHT22;4394;51.208;8.904;2022-10-29T13:34:53;19.90;99.90
8715;DHT22;4394;51.208;8.904;2022-10-29T13:40:43;20.00;99.90
8715;DHT22;4394;51.208;8.904;2022-10-29T13:43:41;19.90;99.90
8715;DHT22;4394;51.208;8.904;2022-10-29T13:46:35;20.00;99.90
8715;DHT22;4394;51.208;8.904;2022-10-29T13:49:31;20.00;99.90
8715;DHT22;4394;51.208;8.904;2022-10-29T13:52:21;20.00;99.90
8715;DHT22;4394;51.208;8.904;2022-10-29T13:55:11;20.00;99.90
8715;DHT22;4394;51.208;8.904;2022-10-29T13:58:01;20.00;99.90
8715;DHT22;4394;51.208;8.904;2022-10-29T14:00:50;20.00;99.90
8715;DHT22;4394;51.208;8.904;2022-10-29T14:03:40;20.00;99.90
8715;DHT22;4394;51.208;8.904;2022-10-29T14:06:35;20.00;99.90
8715;DHT22;4394;51.208;8.904;2022-10-29T14:09:25;20.10;99.90
8715;DHT22;4394;51.208;8.904;2022-10-29T14:12:17;20.10;99.90
8715;DHT22;4394;51.208;8.904;2022-10-29T14:15:07;20.10;99.90
8715;DHT22;4394;51.208;8.904;2022-10-29T14:17:55;20.10;99.90
8715;DHT22;4394;51.208;8.904;2022-10-29T14:20:47;20.10;99.90
8715;DHT22;4394;51.208;8.904;2022-10-29T14:23:40;20.10;99.90
8715;DHT22;4394;51.208;8.904;2022-10-29T14:26:28;20.10;99.90
8715;DHT22;4394;51.208;8.904;2022-10-29T14:29:17;20.00;99.90
8715;DHT22;4394;51.208;8.904;2022-10-29T14:32:06;20.00;99.90
8715;DHT22;4394;51.208;8.904;2022-10-29T14:34:54;20.00;99.90
8715;DHT22;4394;51.208;8.904;2022-10-29T14:37:43;19.90;99.90
8715;DHT22;4394;51.208;8.904;2022-10-29T14:40:32;19.90;99.90
8715;DHT22;4394;51.208;8.904;2022-10-29T14:43:21;19.90;99.90
8715;DHT22;4394;51.208;8.904;2022-10-29T14:46:11;19.90;99.90
8715;DHT22;4394;51.208;8.904;2022-10-29T14:49:01;19.80;99.90
8715;DHT22;4394;51.208;8.904;2022-10-29T14:51:50;19.80;99.90
8715;DHT22;4394;51.208;8.904;2022-10-29T14:54:41;19.70;99.90
8715;DHT22;4394;51.208;8.904;2022-10-29T14:57:34;19.70;99.90
8715;DHT22;4394;51.208;8.904;2022-10-29T15:00:23;19.60;99.90
8715;DHT22;4394;51.208;8.904;2022-10-29T15:03:12;19.60;99.90
8715;DHT22;4394;51.208;8.904;2022-10-29T15:09:09;19.60;99.90
8715;DHT22;4394;51.208;8.904;2022-10-29T15:12:05;19.50;99.90
8715;DHT22;4394;51.208;8.904;2022-10-29T15:14:54;19.50;99.90
8715;DHT22;4394;51.208;8.904;2022-10-29T15:17:46;19.50;99.90
8715;DHT22;4394;51.208;8.904;2022-10-29T15:20:35;19.40;99.90
8715;DHT22;4394;51.208;8.904;2022-10-29T15:23:31;19.40;99.90
8715;DHT22;4394;51.208;8.904;2022-10-29T15:26:20;19.30;99.90
8715;DHT22;4394;51.208;8.904;2022-10-29T15:29:10;19.30;99.90
8715;DHT22;4394;51.208;8.904;2022-10-29T15:31:58;19.20;99.90
8715;DHT22;4394;51.208;8.904;2022-10-29T15:34:46;19.10;99.90
8715;DHT22;4394;51.208;8.904;2022-10-29T15:37:39;19.00;99.90
8715;DHT22;4394;51.208;8.904;2022-10-29T15:40:27;18.90;99.90
8715;DHT22;4394;51.208;8.904;2022-10-29T15:43:25;18.90;99.90
8715;DHT22;4394;51.208;8.904;2022-10-29T15:46:20;18.90;99.90
8715;DHT22;4394;51.208;8.904;2022-10-29T15:49:13;18.80;99.90
8715;DHT22;4394;51.208;8.904;2022-10-29T15:52:01;18.80;99.90
8715;DHT22;4394;51.208;8.904;2022-10-29T15:54:49;18.70;99.90
8715;DHT22;4394;51.208;8.904;2022-10-29T15:57:37;18.60;99.90
8715;DHT22;4394;51.208;8.904;2022-10-29T16:00:25;18.50;99.90
8715;DHT22;4394;51.208;8.904;2022-10-29T16:03:15;18.50;99.90
8715;DHT22;4394;51.208;8.904;2022-10-29T16:06:04;18.50;99.90
8715;DHT22;4394;51.208;8.904;2022-10-29T16:08:53;18.40;99.90
8715;DHT22;4394;51.208;8.904;2022-10-29T16:11:42;18.30;99.90
8715;DHT22;4394;51.208;8.904;2022-10-29T16:14:30;18.30;99.90
8715;DHT22;4394;51.208;8.904;2022-10-29T16:17:18;18.20;99.90
8715;DHT22;4394;51.208;8.904;2022-10-29T16:20:11;18.20;99.90
8715;DHT22;4394;51.208;8.904;2022-10-29T16:22:59;18.20;99.90
8715;DHT22;4394;51.208;8.904;2022-10-29T16:25:46;18.10;99.90
8715;DHT22;4394;51.208;8.904;2022-10-29T16:28:34;18.10;99.90
8715;DHT22;4394;51.208;8.904;2022-10-29T16:31:22;18.00;99.90
8715;DHT22;4394;51.208;8.904;2022-10-29T16:34:11;18.00;99.90
8715;DHT22;4394;51.208;8.904;2022-10-29T16:37:01;18.00;99.90
8715;DHT22;4394;51.208;8.904;2022-10-29T16:39:49;18.00;99.90
8715;DHT22;4394;51.208;8.904;2022-10-29T16:42:37;17.90;99.90
8715;DHT22;4394;51.208;8.904;2022-10-29T16:45:25;17.90;99.90
8715;DHT22;4394;51.208;8.904;2022-10-29T16:48:13;17.80;99.90
8715;DHT22;4394;51.208;8.904;2022-10-29T16:51:01;17.80;99.90
8715;DHT22;4394;51.208;8.904;2022-10-29T16:53:50;17.80;99.90
8715;DHT22;4394;51.208;8.904;2022-10-29T16:56:38;17.80;99.90
8715;DHT22;4394;51.208;8.904;2022-10-29T16:59:26;17.70;99.90
8715;DHT22;4394;51.208;8.904;2022-10-29T17:02:14;17.70;99.90
8715;DHT22;4394;51.208;8.904;2022-10-29T17:05:02;17.80;99.90
8715;DHT22;4394;51.208;8.904;2022-10-29T17:07:51;17.70;99.90
8715;DHT22;4394;51.208;8.904;2022-10-29T17:10:40;17.70;99.90
8715;DHT22;4394;51.208;8.904;2022-10-29T17:13:28;17.60;99.90
8715;DHT22;4394;51.208;8.904;2022-10-29T17:16:16;17.60;99.90
8715;DHT22;4394;51.208;8.904;2022-10-29T17:19:04;17.60;99.90
8715;DHT22;4394;51.208;8.904;2022-10-29T17:21:52;17.60;99.90
8715;DHT22;4394;51.208;8.904;2022-10-29T17:24:40;17.60;99.90
8715;DHT22;4394;51.208;8.904;2022-10-29T17:27:29;17.60;99.90
8715;DHT22;4394;51.208;8.904;2022-10-29T17:30:17;17.50;99.90
8715;DHT22;4394;51.208;8.904;2022-10-29T17:33:05;17.50;99.90
8715;DHT22;4394;51.208;8.904;2022-10-29T17:35:59;17.50;99.90
8715;DHT22;4394;51.208;8.904;2022-10-29T17:38:47;17.50;99.90
8715;DHT22;4394;51.208;8.904;2022-10-29T17:41:34;17.50;99.90
8715;DHT22;4394;51.208;8.904;2022-10-29T17:44:24;17.50;99.90
8715;DHT22;4394;51.208;8.904;2022-10-29T17:47:13;17.40;99.90
8715;DHT22;4394;51.208;8.904;2022-10-29T17:50:00;17.40;99.90
8715;DHT22;4394;51.208;8.904;2022-10-29T17:52:48;17.40;99.90
8715;DHT22;4394;51.208;8.904;2022-10-29T17:55:36;17.40;99.90
8715;DHT22;4394;51.208;8.904;2022-10-29T17:58:24;17.40;99.90
8715;DHT22;4394;51.208;8.904;2022-10-29T18:01:13;17.30;99.90
8715;DHT22;4394;51.208;8.904;2022-10-29T18:04:01;17.40;99.90
8715;DHT22;4394;51.208;8.904;2022-10-29T18:06:49;17.30;99.90
8715;DHT22;4394;51.208;8.904;2022-10-29T18:09:37;17.30;99.90
8715;DHT22;4394;51.208;8.904;2022-10-29T18:12:24;17.30;99.90
8715;DHT22;4394;51.208;8.904;2022-10-29T18:15:12;17.20;99.90
8715;DHT22;4394;51.208;8.904;2022-10-29T18:18:01;17.20;99.90
8715;DHT22;4394;51.208;8.904;2022-10-29T18:20:49;17.20;99.90
8715;DHT22;4394;51.208;8.904;2022-10-29T18:23:37;17.20;99.90
8715;DHT22;4394;51.208;8.904;2022-10-29T18:26:25;17.20;99.90
8715;DHT22;4394;51.208;8.904;2022-10-29T18:29:13;17.20;99.90
8715;DHT22;4394;51.208;8.904;2022-10-29T18:32:01;17.10;99.90
8715;DHT22;4394;51.208;8.904;2022-10-29T18:34:53;17.10;99.90
8715;DHT22;4394;51.208;8.904;2022-10-29T18:37:41;17.10;99.90
8715;DHT22;4394;51.208;8.904;2022-10-29T18:40:29;17.10;99.90
8715;DHT22;4394;51.208;8.904;2022-10-29T18:43:16;17.10;99.90
8715;DHT22;4394;51.208;8.904;2022-10-29T18:46:05;17.10;99.90
8715;DHT22;4394;51.208;8.904;2022-10-29T18:48:53;17.10;99.90
8715;DHT22;4394;51.208;8.904;2022-10-29T18:51:42;17.00;99.90
8715;DHT22;4394;51.208;8.904;2022-10-29T18:54:30;17.00;99.90